Terminal Aerodrome Forecast
Issued by NWS

Home | Current Version | Previous Version | Graphics & Text | Print | Product List | Glossary On
Versions: 1 2 3 4 5 6 7 8 9 10 11 12 13
000
FTUS45 KGGW 291100
TAFSDY
TAF
KSDY 291130Z 2912/3012 27005KT P6SM -SHRA SCT040 BKN090
     FM291400 34009KT P6SM BKN045
     FM291900 VRB06KT P6SM SCT050
     FM300000 VRB06KT P6SM SKC
      AMD LTD TO CLD VIS AND WIND=

USA.gov is the U.S. government's official web portal to all federal, state and local government web resources and services.